Harper, Kentucky
Current Conditions -  °F | °C
As of 12:53 PM on Monday 24 Nov 2014 (Local Time) from KJKL Reporting Station
Broken Clouds Broken Clouds  
Wind Chill: 64°   Ceiling: 7500
Heat Index: 64°   Visibility: 10mi
Dew Point: 44°   Wind: 12mph
Humidity: 48%   Direction: 240°WSW
Pressure: 29.6"   Gusts: 28mph
Location:  37.7261°N, 83.0786°W
Report Text: KJKL 241753Z AUTO 24010G24KT 200V290 10SM SCT060 BKN075 BKN085 18/07 A2960 RMK AO2 PK WND 22030/1702 SLP015 T01780067 10211 20156 53013
Loading
Personal Weather Stations






























Interactive Weather Map New forecast layout! Learn more

10-Day Weather Forecast

Advertisements
Track Severe Weather on mobile